Time;durP1;ratioP1;P1;durP2;ratioP2;P2;SDS_P1;SDS_P2;PMS_P1;PMS_P2;Temp;Humidity;BMP_temperature;BMP_pressure;BME280_temperature;BME280_humidity;BME280_pressure;Samples;Min_cycle;Max_cycle;Signal;HPM_P1;HPM_P2
2022/11/11 00:01:00;;;;;;;36.20;21.13;;;10.30;99.90;;;10.42;67.35;96093.94;5000205;28;20478;-56
2022/11/11 00:03:28;;;;;;;35.87;23.07;;;10.30;99.90;;;10.46;67.15;96090.16;5003016;28;20458;-60
2022/11/11 00:05:55;;;;;;;35.70;21.07;;;10.40;99.90;;;10.48;67.30;96086.44;5003132;28;20473;-56
2022/11/11 00:08:23;;;;;;;36.07;22.70;;;10.40;99.90;;;10.51;67.17;96082.75;5006221;28;20911;-57
2022/11/11 00:10:52;;;;;;;33.90;19.47;;;10.40;99.90;;;10.53;67.12;96086.97;5001191;28;20486;-56
2022/11/11 00:13:20;;;;;;;40.50;20.53;;;10.40;99.90;;;10.56;67.38;96085.91;5005784;28;20458;-56
2022/11/11 00:15:47;;;;;;;32.67;21.13;;;10.50;99.90;;;10.55;67.66;96084.19;5005697;28;20485;-55
2022/11/11 00:26:32;;;;;;;40.60;24.70;;;10.60;99.90;;;10.73;67.63;96092.59;5003087;28;20806;-56
2022/11/11 00:28:59;;;;;;;38.60;22.07;;;10.60;99.90;;;10.76;67.57;96100.25;5001813;28;20474;-55
2022/11/11 00:31:27;;;;;;;35.70;22.00;;;10.60;99.90;;;10.80;67.79;96096.47;4997297;28;20462;-54
2022/11/11 00:33:54;;;;;;;37.97;22.93;;;10.70;99.90;;;10.85;67.95;96101.41;5006099;28;20481;-55
2022/11/11 00:36:20;;;;;;;40.17;23.03;;;10.70;99.90;;;10.89;68.26;96102.84;5006044;28;20465;-55
2022/11/11 00:38:48;;;;;;;37.60;21.57;;;10.80;99.90;;;10.92;68.15;96095.56;5002910;28;20871;-55
2022/11/11 00:41:17;;;;;;;36.30;22.00;;;10.80;99.90;;;10.98;68.10;96102.16;4998409;28;20453;-56
2022/11/11 00:43:46;;;;;;;31.53;21.50;;;10.90;99.90;;;11.02;68.04;96098.38;5005913;28;20446;-55
2022/11/11 00:51:44;;;;;;;35.43;22.27;;;10.90;99.90;;;11.06;67.83;96094.56;4999485;28;20480;-55
2022/11/11 00:54:12;;;;;;;35.20;22.60;;;11.00;99.90;;;11.08;67.88;96097.09;5004845;28;20619;-56
2022/11/11 00:56:39;;;;;;;33.20;21.10;;;11.00;99.90;;;11.08;67.92;96090.03;5004513;28;20454;-55
2022/11/11 00:59:09;;;;;;;35.87;22.57;;;11.00;99.90;;;11.08;67.93;96090.03;5005980;28;20485;-55
2022/11/11 01:01:37;;;;;;;34.60;22.20;;;11.00;99.90;;;11.09;67.52;96091.72;5008439;28;20461;-55
2022/11/11 01:04:04;;;;;;;36.90;22.07;;;11.00;99.90;;;11.11;68.05;96091.59;5009102;28;20485;-56
2022/11/11 01:06:32;;;;;;;39.70;24.23;;;11.00;99.90;;;11.14;68.12;96088.75;5002168;28;20465;-56
2022/11/11 01:09:04;;;;;;;36.80;21.27;;;11.00;99.90;;;11.15;67.99;96081.66;5000135;28;20478;-55
2022/11/11 01:11:31;;;;;;;36.50;23.47;;;11.00;99.90;;;11.18;68.15;96092.81;5009856;28;20519;-55
2022/11/11 01:13:58;;;;;;;41.00;24.60;;;11.10;99.90;;;11.19;68.00;96093.66;5003260;28;21041;-56
2022/11/11 01:16:27;;;;;;;41.80;23.67;;;11.10;99.90;;;11.21;68.41;96089.94;5008323;28;20453;-56
2022/11/11 01:18:54;;;;;;;44.67;23.80;;;11.10;99.90;;;11.22;68.40;96089.00;5005105;28;21062;-56
2022/11/11 01:21:23;;;;;;;43.93;23.00;;;11.10;99.90;;;11.22;68.49;96083.75;5004196;28;20468;-55
2022/11/11 01:23:51;;;;;;;36.83;23.70;;;11.10;99.90;;;11.22;68.34;96083.75;5009233;28;20472;-56
2022/11/11 01:26:20;;;;;;;39.40;24.00;;;11.10;99.90;;;11.22;68.62;96090.81;5001677;28;20515;-57
2022/11/11 01:28:49;;;;;;;42.13;25.47;;;11.10;99.90;;;11.22;68.49;96091.63;5004857;28;21025;-57
2022/11/11 01:31:17;;;;;;;44.40;26.00;;;11.10;99.90;;;11.22;68.85;96093.44;5008742;28;20446;-56
2022/11/11 01:33:46;;;;;;;43.57;26.23;;;11.10;99.90;;;11.22;68.35;96091.63;5007812;28;20568;-55
2022/11/11 01:36:14;;;;;;;42.20;25.17;;;11.10;99.90;;;11.21;68.53;96089.94;5000514;28;20465;-55
2022/11/11 01:38:42;;;;;;;41.90;25.57;;;11.20;99.90;;;11.22;68.75;96085.53;5006250;28;21024;-56
2022/11/11 01:43:56;;;;;;;41.27;24.27;;;11.10;99.90;;;11.23;68.37;96092.47;5006949;28;20989;-55
2022/11/11 01:46:34;;;;;;;46.63;25.63;;;11.10;99.90;;;11.23;68.59;96089.84;5008701;28;20588;-58
2022/11/11 01:49:20;;;;;;;44.70;25.20;;;11.10;99.90;;;11.24;68.53;96096.78;5001126;28;20517;-55
2022/11/11 01:52:02;;;;;;;43.00;26.00;;;11.10;99.90;;;11.24;68.77;96094.16;5004508;28;20445;-55
2022/11/11 01:54:33;;;;;;;44.87;25.47;;;11.10;99.90;;;11.26;68.56;96100.13;5006007;28;20488;-55
2022/11/11 01:57:04;;;;;;;40.93;25.40;;;11.10;99.90;;;11.25;68.79;96093.22;4999380;28;20498;-54
2022/11/11 01:59:32;;;;;;;47.97;27.57;;;11.20;99.90;;;11.27;68.42;96099.19;5002834;28;21081;-55
2022/11/11 02:02:00;;;;;;;43.90;25.33;;;11.20;99.90;;;11.28;68.63;96092.97;5003537;28;20516;-57
2022/11/11 02:07:13;;;;;;;50.43;27.50;;;11.20;99.90;;;11.29;68.55;96099.91;4994764;28;20450;-55
2022/11/11 02:09:44;;;;;;;58.43;27.40;;;11.20;99.90;;;11.29;69.17;96094.66;5001169;28;21103;-55
2022/11/11 02:14:58;;;;;;;47.33;27.10;;;11.20;99.90;;;11.31;69.58;96098.03;5006763;28;20527;-55
2022/11/11 02:17:26;;;;;;;47.00;27.33;;;11.20;99.90;;;11.29;68.77;96099.91;5000372;28;20531;-54
2022/11/11 02:19:57;;;;;;;42.73;26.97;;;11.20;99.90;;;11.29;68.74;96102.53;5002006;28;20540;-56
2022/11/11 02:22:33;;;;;;;41.23;27.03;;;11.20;99.90;;;11.29;69.08;96094.66;5007986;28;20448;-56
2022/11/11 02:25:02;;;;;;;46.37;28.50;;;11.20;99.90;;;11.29;69.30;96089.38;5003094;28;20493;-55
2022/11/11 02:27:30;;;;;;;51.20;27.30;;;11.20;99.90;;;11.32;69.13;96099.69;4999747;28;20473;-56
2022/11/11 02:29:58;;;;;;;51.23;28.90;;;11.20;99.90;;;11.33;69.30;96097.91;5008154;28;20536;-56
2022/11/11 02:32:25;;;;;;;51.03;27.17;;;11.20;99.90;;;11.34;69.68;96104.84;5002389;28;20454;-56
2022/11/11 02:34:52;;;;;;;53.43;29.20;;;11.20;99.90;;;11.36;69.44;96095.88;5007747;28;20915;-56
2022/11/11 02:37:21;;;;;;;50.67;28.30;;;11.20;99.90;;;11.38;69.81;96104.50;5003420;28;20469;-55
2022/11/11 02:39:50;;;;;;;49.40;27.03;;;11.30;99.90;;;11.42;69.42;96099.88;5001390;28;20478;-56
2022/11/11 02:42:18;;;;;;;49.20;28.00;;;11.30;99.90;;;11.44;69.66;96104.03;5005092;28;20472;-56
2022/11/11 02:44:45;;;;;;;48.40;28.60;;;11.30;99.90;;;11.50;69.13;96107.19;5006925;28;20577;-55
2022/11/11 02:47:13;;;;;;;47.50;26.97;;;11.40;99.90;;;11.53;69.75;96101.69;5003139;28;20469;-57
2022/11/11 02:49:40;;;;;;;45.53;26.90;;;11.40;99.90;;;11.57;69.61;96100.50;5006912;28;21075;-55
2022/11/11 02:52:07;;;;;;;44.23;26.17;;;11.40;99.90;;;11.62;69.41;96095.72;5006839;28;20465;-56
2022/11/11 02:54:35;;;;;;;40.40;26.00;;;11.50;99.90;;;11.66;69.57;96100.66;5007214;28;20477;-56
2022/11/11 02:57:08;;;;;;;42.47;27.43;;;11.50;99.90;;;11.70;69.09;96103.88;5001400;28;20466;-56
2022/11/11 02:59:37;;;;;;;47.73;27.00;;;11.60;99.90;;;11.75;69.39;96111.44;4997238;28;20482;-56
2022/11/11 03:02:05;;;;;;;44.23;27.40;;;11.60;99.90;;;11.79;68.99;96108.47;4996943;28;20467;-56
2022/11/11 03:04:32;;;;;;;45.80;25.73;;;11.70;99.90;;;11.83;69.40;96109.06;5000688;28;20493;-57
2022/11/11 03:06:59;;;;;;;41.33;24.60;;;11.70;99.90;;;11.86;69.30;96114.09;5000071;28;20520;-57
2022/11/11 03:09:26;;;;;;;44.03;24.67;;;11.70;99.90;;;11.91;68.89;96113.75;5006074;28;20493;-56
2022/11/11 03:11:54;;;;;;;45.47;25.17;;;11.80;99.90;;;11.93;68.90;96115.34;5004552;28;20469;-57
2022/11/11 03:14:21;;;;;;;48.30;25.67;;;11.80;99.90;;;11.95;68.85;96105.50;5006623;28;20485;-56
2022/11/11 03:19:34;;;;;;;44.40;26.90;;;11.90;99.90;;;12.02;68.54;96113.78;4999592;28;20520;-56
2022/11/11 03:22:02;;;;;;;42.60;25.33;;;11.90;99.90;;;12.05;68.80;96110.91;5000939;28;20858;-55
2022/11/11 03:25:36;;;;;;;44.20;27.40;;;11.90;99.90;;;12.06;68.65;96107.31;5004481;28;20478;-55
2022/11/11 03:27:16;;;;;;;43.63;26.03;;;11.90;99.90;;;12.09;68.53;96101.00;4992850;28;20461;-56
2022/11/11 03:29:43;;;;;;;51.60;27.20;;;11.90;99.90;;;12.12;68.79;96098.13;5002296;28;20489;-56
2022/11/11 03:32:11;;;;;;;41.40;26.13;;;12.00;99.90;;;12.14;68.58;96104.94;5005997;28;20755;-56
2022/11/11 03:34:39;;;;;;;40.40;23.87;;;12.00;99.90;;;12.16;68.71;96100.41;5006783;28;20945;-56
2022/11/11 03:39:52;;;;;;;38.00;25.47;;;12.10;99.90;;;12.22;68.66;96103.50;5006300;28;20477;-56
2022/11/11 03:42:20;;;;;;;41.43;27.90;;;12.10;99.90;;;12.24;68.41;96099.78;5000447;28;20569;-55
2022/11/11 03:44:47;;;;;;;46.77;27.77;;;12.10;99.90;;;12.28;68.53;96103.03;5000884;28;21031;-56
2022/11/11 03:47:16;;;;;;;44.80;26.33;;;12.10;99.90;;;12.31;68.58;96102.78;4998549;28;20577;-56
2022/11/11 03:49:44;;;;;;;42.83;26.53;;;12.20;99.90;;;12.33;69.04;96106.13;5002279;28;20481;-55
2022/11/11 03:52:13;;;;;;;44.57;25.93;;;12.20;99.90;;;12.36;69.08;96105.91;5001455;28;20544;-56
2022/11/11 03:54:40;;;;;;;41.57;25.93;;;12.20;99.90;;;12.37;68.75;96103.13;4998523;28;20537;-55
2022/11/11 03:59:52;;;;;;;43.50;27.00;;;12.20;99.90;;;12.40;69.08;96101.25;5000848;28;20492;-57
2022/11/11 04:10:36;;;;;;;45.73;26.83;;;12.30;99.90;;;12.46;69.16;96096.31;5006054;28;20831;-56
2022/11/11 04:16:06;;;;;;;49.20;29.60;;;12.30;99.90;;;12.49;69.52;96096.06;4998022;28;20488;-56
2022/11/11 04:25:47;;;;;;;40.93;25.63;;;12.40;99.90;;;12.51;69.38;96104.69;5005377;28;20496;-55
2022/11/11 04:26:54;;;;;;;38.27;24.87;;;12.40;99.90;;;12.53;69.78;96113.34;4997493;28;20484;-56
2022/11/11 04:29:30;;;;;;;44.17;26.23;;;12.40;99.90;;;12.55;69.41;96119.34;4997204;28;20481;-57
2022/11/11 04:34:46;;;;;;;46.37;24.83;;;12.40;99.90;;;12.56;69.48;96114.88;4993983;28;20480;-55
2022/11/11 04:37:13;;;;;;;46.90;26.80;;;12.40;99.90;;;12.55;69.28;96103.50;4997725;28;20449;-57
2022/11/11 04:42:25;;;;;;;42.93;27.70;;;12.40;99.90;;;12.53;70.26;96112.50;4996810;28;20449;-56
2022/11/11 04:47:57;;;;;;;40.40;22.53;;;12.40;99.90;;;12.58;71.07;96120.03;4984424;28;21116;-56
2022/11/11 04:50:27;;;;;;;42.70;24.90;;;12.50;99.90;;;12.62;70.57;96116.22;5003846;28;20481;-55
2022/11/11 04:52:54;;;;;;;40.77;24.77;;;12.50;99.90;;;12.68;71.43;96121.00;5005544;28;20495;-56
2022/11/11 04:58:06;;;;;;;54.50;26.30;;;12.60;99.90;;;12.81;70.76;96120.84;4967920;28;20485;-56
2022/11/11 05:00:33;;;;;;;39.47;23.73;;;12.60;99.90;;;12.85;70.55;96117.03;5006354;28;20469;-57
2022/11/11 05:03:14;;;;;;;41.00;24.40;;;12.70;99.90;;;12.87;70.63;96123.88;5006192;28;20464;-57
2022/11/11 05:11:17;;;;;;;34.87;21.87;;;12.80;99.90;;;12.97;69.99;96129.25;4998136;28;20444;-56
2022/11/11 05:22:09;;;;;;;35.37;20.30;;;12.90;99.90;;;13.05;69.93;96133.91;5003175;28;20941;-57
2022/11/11 05:27:21;;;;;;;29.83;18.40;;;12.90;99.90;;;13.06;69.01;96133.78;4987588;28;20473;-55
2022/11/11 05:29:49;;;;;;;32.87;19.47;;;12.90;99.90;;;13.05;69.13;96140.00;5004820;28;20469;-54
2022/11/11 05:32:19;;;;;;;25.97;18.40;;;12.90;99.90;;;13.03;69.00;96143.75;4996371;28;20967;-55
2022/11/11 05:34:46;;;;;;;27.90;19.80;;;12.90;99.90;;;12.98;68.93;96152.06;4999548;28;20484;-56
2022/11/11 05:37:15;;;;;;;31.10;19.00;;;12.80;99.90;;;12.95;68.64;96154.06;5002238;28;20979;-56
2022/11/11 05:39:43;;;;;;;29.03;18.50;;;12.80;99.90;;;12.91;69.15;96153.50;5002750;28;20556;-55
2022/11/11 05:42:10;;;;;;;28.63;16.70;;;12.80;99.90;;;12.87;69.07;96158.19;5000345;28;20465;-56
2022/11/11 05:44:38;;;;;;;28.73;18.27;;;12.70;99.90;;;12.84;69.01;96150.50;5004622;28;20481;-53
2022/11/11 05:47:05;;;;;;;28.37;17.90;;;12.70;99.90;;;12.84;69.09;96157.56;4998013;28;20544;-54
2022/11/11 05:49:32;;;;;;;27.97;18.27;;;12.70;99.90;;;12.79;69.13;96154.47;5000639;28;20477;-59
2022/11/11 05:52:00;;;;;;;26.80;18.13;;;12.70;99.90;;;12.78;69.14;96164.19;4997085;28;20483;-55
2022/11/11 05:54:28;;;;;;;24.57;18.00;;;12.70;99.90;;;12.78;69.33;96169.47;5008559;28;21072;-57
2022/11/11 05:56:56;;;;;;;28.20;17.83;;;12.60;99.90;;;12.76;69.26;96171.38;5005778;28;20453;-56
2022/11/11 05:59:23;;;;;;;27.53;17.17;;;12.60;99.90;;;12.73;69.16;96180.41;5008206;28;20505;-56
2022/11/11 06:01:50;;;;;;;29.17;18.27;;;12.60;99.90;;;12.73;69.08;96187.47;5008912;28;20472;-55
2022/11/11 06:04:18;;;;;;;28.47;16.90;;;12.60;99.90;;;12.71;69.35;96184.94;5007913;28;20474;-56
2022/11/11 06:06:45;;;;;;;37.43;19.83;;;12.60;99.90;;;12.70;69.29;96190.34;5005050;28;20501;-56
2022/11/11 06:09:12;;;;;;;28.20;18.33;;;12.60;99.90;;;12.70;69.22;96198.25;5007636;28;20474;-56
2022/11/11 06:11:41;;;;;;;30.97;18.47;;;12.50;99.90;;;12.69;69.17;96207.16;5007609;28;20449;-56
2022/11/11 06:14:08;;;;;;;38.50;19.10;;;12.50;99.90;;;12.67;69.77;96209.06;5007259;28;20500;-57
2022/11/11 06:16:36;;;;;;;29.70;17.83;;;12.50;99.90;;;12.64;69.60;96204.88;5006762;28;20461;-56
2022/11/11 06:19:04;;;;;;;38.33;21.40;;;12.50;99.90;;;12.63;69.17;96207.63;5006394;28;20466;-56
2022/11/11 06:21:31;;;;;;;34.57;20.43;;;12.50;99.90;;;12.62;69.29;96205.94;5007906;28;20462;-55
2022/11/11 06:23:59;;;;;;;43.63;20.27;;;12.50;99.90;;;12.61;69.36;96212.19;5007910;28;20842;-57
2022/11/11 06:26:26;;;;;;;27.87;18.30;;;12.50;99.90;;;12.60;69.26;96203.44;5007645;28;20497;-55
2022/11/11 06:28:56;;;;;;;39.17;19.13;;;12.50;99.90;;;12.63;69.02;96210.28;5007381;28;20485;-56
2022/11/11 06:31:25;;;;;;;37.73;20.93;;;12.50;99.90;;;12.62;69.45;96221.78;5007085;28;20454;-57
2022/11/11 06:33:53;;;;;;;30.77;19.37;;;12.50;99.90;;;12.61;69.23;96220.97;5007354;28;20453;-55
2022/11/11 06:36:21;;;;;;;32.93;20.10;;;12.50;99.90;;;12.62;69.15;96224.44;5007247;28;20457;-57
2022/11/11 06:38:48;;;;;;;28.70;18.27;;;12.50;99.90;;;12.61;68.93;96228.00;5007379;28;20458;-57
2022/11/11 06:41:16;;;;;;;31.57;19.17;;;12.50;99.90;;;12.61;69.52;96234.16;5007543;28;20454;-55
2022/11/11 06:43:43;;;;;;;29.37;18.40;;;12.50;99.90;;;12.61;69.37;96241.22;4999698;28;20461;-54
2022/11/11 06:46:17;;;;;;;33.40;19.23;;;12.50;99.90;;;12.60;69.65;96242.19;5006857;28;20500;-55
2022/11/11 06:48:45;;;;;;;31.00;20.03;;;12.50;99.90;;;12.59;69.56;96243.13;5006051;28;20527;-55
2022/11/11 06:51:12;;;;;;;35.33;19.03;;;12.50;99.90;;;12.58;69.56;96244.09;4999034;28;20782;-57
2022/11/11 06:53:39;;;;;;;37.00;18.27;;;12.40;99.90;;;12.58;69.63;96246.72;5007280;28;20445;-56
2022/11/11 06:56:08;;;;;;;29.73;19.40;;;12.40;99.90;;;12.59;69.72;96246.59;5006467;28;20450;-55
2022/11/11 06:58:35;;;;;;;30.87;18.50;;;12.40;99.90;;;12.59;69.63;96240.50;5006936;28;20453;-56
2022/11/11 07:01:04;;;;;;;28.87;17.30;;;12.40;99.90;;;12.60;69.48;96244.84;5006833;28;20446;-57
2022/11/11 07:03:33;;;;;;;24.30;16.63;;;12.50;99.90;;;12.63;69.69;96244.59;5006468;28;20488;-54
2022/11/11 07:06:01;;;;;;;29.00;16.97;;;12.50;99.90;;;12.64;69.70;96251.53;5006801;28;20500;-56
2022/11/11 07:08:28;;;;;;;26.57;17.03;;;12.50;99.90;;;12.66;69.62;96249.63;5007063;28;20453;-55
2022/11/11 07:10:55;;;;;;;29.80;16.97;;;12.50;99.90;;;12.69;69.55;96254.69;5006713;28;20474;-57
2022/11/11 07:13:23;;;;;;;32.43;19.10;;;12.60;99.90;;;12.72;69.51;96249.16;5007050;28;20492;-56
2022/11/11 07:15:50;;;;;;;32.77;19.40;;;12.60;99.90;;;12.73;69.55;96251.69;5006820;28;20484;-57
2022/11/11 07:18:17;;;;;;;30.97;18.57;;;12.60;99.90;;;12.74;69.37;96258.63;5006722;28;20461;-56
2022/11/11 07:20:46;;;;;;;28.87;17.23;;;12.60;99.90;;;12.77;69.17;96262.00;5004661;28;20474;-56
2022/11/11 07:23:16;;;;;;;28.80;16.87;;;12.60;99.90;;;12.79;69.11;96262.72;5006403;28;20568;-56
2022/11/11 07:25:44;;;;;;;33.00;18.17;;;12.60;99.90;;;12.79;69.00;96265.34;5006284;28;20508;-57
2022/11/11 07:28:11;;;;;;;34.47;17.70;;;12.70;99.90;;;12.80;68.87;96261.78;4996990;28;20446;-56
2022/11/11 07:30:40;;;;;;;31.07;18.77;;;12.70;99.90;;;12.81;69.22;96269.56;5006850;28;20620;-56
2022/11/11 07:33:07;;;;;;;30.23;16.63;;;12.70;99.90;;;12.82;69.27;96268.59;5004622;28;20753;-58
2022/11/11 07:35:34;;;;;;;26.37;16.70;;;12.70;99.90;;;12.83;69.44;96265.00;5006677;28;21013;-57
2022/11/11 07:38:03;;;;;;;28.67;17.27;;;12.70;99.90;;;12.85;69.42;96271.00;5006630;28;20468;-58
2022/11/11 07:40:30;;;;;;;26.73;15.60;;;12.70;99.90;;;12.85;68.86;96276.28;5002586;28;20474;-57
2022/11/11 07:42:57;;;;;;;22.97;14.00;;;12.70;99.90;;;12.86;69.27;96279.78;5006276;28;20994;-57
2022/11/11 07:45:25;;;;;;;21.07;14.47;;;12.70;99.90;;;12.83;68.91;96283.47;5005785;28;20496;-56
2022/11/11 07:47:52;;;;;;;27.87;16.00;;;12.70;99.90;;;12.82;68.82;96287.06;5006406;28;20457;-55
2022/11/11 07:50:19;;;;;;;21.90;12.87;;;12.70;99.90;;;12.81;68.95;96285.41;5006085;28;21000;-57
2022/11/11 07:52:50;;;;;;;31.57;14.23;;;12.70;99.90;;;12.79;68.71;96292.59;5002218;28;20449;-56
2022/11/11 07:55:18;;;;;;;24.80;14.00;;;12.60;99.90;;;12.76;68.65;96298.09;5006164;28;20478;-56
2022/11/11 07:57:46;;;;;;;23.30;14.73;;;12.60;99.90;;;12.74;68.87;96307.94;5005667;28;20449;-57
2022/11/11 08:00:14;;;;;;;23.33;14.93;;;12.60;99.90;;;12.69;68.68;96302.19;5004595;28;20481;-56
2022/11/11 08:02:46;;;;;;;22.00;14.00;;;12.60;99.90;;;12.63;69.02;96297.38;5005621;28;20464;-55
2022/11/11 08:05:13;;;;;;;28.90;16.53;;;12.50;99.90;;;12.60;68.83;96292.34;5005687;28;21119;-56
2022/11/11 08:07:41;;;;;;;24.50;15.07;;;12.50;99.90;;;12.60;68.94;96297.63;5005895;28;20543;-58
2022/11/11 08:10:09;;;;;;;25.60;15.27;;;12.40;99.90;;;12.59;68.91;96295.94;5005852;28;20549;-55
2022/11/11 08:15:23;;;;;;;26.37;15.63;;;12.50;99.90;;;12.62;69.02;96298.34;5004562;28;20472;-56
2022/11/11 08:17:50;;;;;;;24.47;15.40;;;12.50;99.90;;;12.64;69.02;96299.03;5005512;28;20461;-56
2022/11/11 08:20:17;;;;;;;24.20;14.20;;;12.50;99.90;;;12.67;69.12;96298.81;5006172;28;21490;-57
2022/11/11 08:22:45;;;;;;;24.83;14.40;;;12.50;99.90;;;12.70;68.66;96306.50;5005764;28;20512;-57
2022/11/11 08:25:13;;;;;;;26.00;15.43;;;12.60;99.90;;;12.74;68.86;96297.41;5006077;28;21060;-58
2022/11/11 08:27:42;;;;;;;22.70;14.07;;;12.60;99.90;;;12.79;68.54;96297.88;4998289;28;20525;-56
2022/11/11 08:30:11;;;;;;;23.43;14.83;;;12.70;99.90;;;12.84;68.20;96300.16;5005797;28;20543;-56
2022/11/11 08:32:38;;;;;;;35.67;15.57;;;12.70;99.90;;;12.86;68.25;96296.44;4997666;28;20454;-57
2022/11/11 08:35:06;;;;;;;20.70;13.03;;;12.70;99.90;;;12.91;67.74;96307.50;5005351;28;20470;-57
2022/11/11 08:37:34;;;;;;;23.23;14.03;;;12.70;99.90;;;12.95;67.96;96304.59;5005904;28;20465;-57
2022/11/11 08:40:01;;;;;;;25.53;13.90;;;12.80;99.90;;;12.97;67.61;96294.78;5005623;28;20481;-56
2022/11/11 08:42:28;;;;;;;18.43;12.20;;;12.80;99.90;;;13.02;67.62;96297.91;5005966;28;20466;-57
2022/11/11 08:44:57;;;;;;;23.63;13.30;;;12.80;99.90;;;13.07;67.51;96301.00;5005237;28;20481;-56
2022/11/11 08:47:24;;;;;;;29.20;13.63;;;12.90;99.90;;;13.13;67.26;96300.53;5005495;28;20504;-56
2022/11/11 08:49:52;;;;;;;19.50;11.57;;;12.90;99.90;;;13.17;67.30;96296.69;5004678;28;20523;-55
2022/11/11 08:52:19;;;;;;;18.37;11.47;;;13.00;99.90;;;13.23;66.97;96301.50;5001558;28;20963;-57
2022/11/11 08:54:46;;;;;;;17.90;11.17;;;13.10;99.90;;;13.27;66.69;96300.28;5005438;28;20493;-55
2022/11/11 08:57:13;;;;;;;20.97;13.37;;;13.10;99.90;;;13.33;66.85;96301.63;5004973;28;20480;-56
2022/11/11 08:59:41;;;;;;;20.70;10.67;;;13.20;99.90;;;13.35;66.14;96289.13;5002570;28;21103;-56
2022/11/11 09:02:12;;;;;;;17.67;12.13;;;13.20;99.90;;;13.39;65.91;96290.59;5005133;28;20457;-56
2022/11/11 09:04:39;;;;;;;14.57;9.90;;;13.20;99.90;;;13.42;65.77;96294.78;5005440;28;20498;-57
2022/11/11 09:07:07;;;;;;;14.07;10.20;;;13.20;99.90;;;13.45;65.51;96291.91;5005640;28;20493;-55
2022/11/11 09:09:34;;;;;;;12.50;9.33;;;13.30;99.90;;;13.49;65.50;96293.31;5005617;28;20478;-55
2022/11/11 09:12:02;;;;;;;13.80;9.50;;;13.30;99.90;;;13.53;65.45;96296.59;5007092;28;20536;-56
2022/11/11 09:14:29;;;;;;;11.60;8.20;;;13.40;99.90;;;13.55;65.01;96287.53;5005524;28;20469;-57
2022/11/11 09:16:56;;;;;;;15.63;8.77;;;13.40;99.90;;;13.59;65.04;96289.00;5009026;28;20508;-56
2022/11/11 09:19:25;;;;;;;10.30;7.23;;;13.40;99.90;;;13.63;64.81;96282.50;5009400;28;20477;-59
2022/11/11 09:21:53;;;;;;;9.57;7.50;;;13.40;99.90;;;13.67;64.01;96292.84;5009307;28;21008;-56
2022/11/11 09:24:20;;;;;;;11.23;7.87;;;13.50;99.70;;;13.69;62.88;96290.91;5009396;28;20477;-60
2022/11/11 09:26:48;;;;;;;10.93;7.73;;;13.50;98.80;;;13.67;63.81;96293.66;5006559;28;21043;-56
2022/11/11 09:29:16;;;;;;;11.47;8.03;;;13.50;99.20;;;13.70;63.65;96290.78;5008134;28;20556;-57
2022/11/11 09:31:43;;;;;;;14.70;9.00;;;13.60;99.50;;;13.74;63.71;96291.34;5005771;28;20861;-55
2022/11/11 09:34:10;;;;;;;17.47;10.30;;;13.60;99.40;;;13.79;63.99;96283.91;5008263;28;20500;-57
2022/11/11 09:36:39;;;;;;;13.57;9.67;;;13.60;99.50;;;13.84;63.66;96284.38;5008592;28;20500;-57
2022/11/11 09:39:07;;;;;;;19.53;9.40;;;13.60;99.40;;;13.88;63.53;96285.81;5008755;28;20762;-54
2022/11/11 09:41:42;;;;;;;13.87;9.43;;;13.70;99.30;;;13.87;63.49;96288.56;5009040;28;20461;-58
2022/11/11 09:44:18;;;;;;;10.57;8.27;;;13.70;99.00;;;13.86;63.07;96281.59;5008929;28;20461;-55
2022/11/11 09:46:50;;;;;;;10.10;7.77;;;13.70;98.90;;;13.85;63.51;96283.41;5006435;28;20487;-56
2022/11/11 09:49:51;;;;;;;13.03;9.67;;;13.70;98.90;;;13.86;63.20;96271.84;5009306;28;21006;-56
2022/11/11 09:52:21;;;;;;;11.00;8.80;;;13.70;99.00;;;13.90;63.45;96267.16;4999305;28;20484;-56
2022/11/11 09:54:51;;;;;;;8.97;7.67;;;13.70;98.90;;;13.91;63.07;96264.41;5008250;28;21004;-55
2022/11/11 09:57:32;;;;;;;16.43;9.80;;;13.80;98.90;;;13.94;62.74;96272.06;5008327;28;20457;-55
2022/11/11 10:00:00;;;;;;;10.43;8.20;;;13.80;98.60;;;13.96;62.36;96267.50;5008385;28;21013;-55
2022/11/11 10:02:34;;;;;;;9.80;8.57;;;13.80;98.30;;;13.95;62.53;96263.16;5008668;28;20465;-56
2022/11/11 10:05:07;;;;;;;11.43;7.90;;;13.80;98.40;;;13.96;62.31;96264.84;5008373;28;21079;-56
2022/11/11 10:07:39;;;;;;;9.50;7.17;;;13.80;98.30;;;13.99;61.97;96256.66;5001408;28;20478;-58
2022/11/11 10:10:17;;;;;;;11.90;8.03;;;13.80;98.10;;;14.03;62.18;96262.53;5003889;28;20990;-57
2022/11/11 10:12:49;;;;;;;14.33;8.03;;;13.90;98.20;;;14.06;61.92;96264.09;5000517;28;20461;-57
2022/11/11 10:15:16;;;;;;;12.80;8.50;;;13.90;98.10;;;14.10;62.20;96257.59;5004171;28;20561;-56
2022/11/11 10:17:54;;;;;;;11.60;8.13;;;13.90;98.10;;;14.15;62.24;96260.69;5003404;28;20548;-56
2022/11/11 10:20:25;;;;;;;9.87;7.40;;;14.00;98.00;;;14.18;61.88;96256.94;5004204;28;20544;-56
2022/11/11 10:22:58;;;;;;;20.00;8.27;;;14.00;98.10;;;14.22;61.84;96258.34;4999406;28;20450;-56
2022/11/11 10:25:26;;;;;;;10.60;7.60;;;14.10;97.90;;;14.29;61.63;96262.19;5001088;28;21058;-56
2022/11/11 10:27:56;;;;;;;11.63;8.70;;;14.10;97.90;;;14.37;61.60;96261.53;5003467;28;20521;-55
2022/11/11 10:30:26;;;;;;;12.57;7.47;;;14.20;97.90;;;14.41;60.87;96262.97;5006937;28;20498;-57
2022/11/11 10:32:56;;;;;;;11.00;7.53;;;14.20;97.20;;;14.41;60.63;96253.22;5002877;28;20446;-57
2022/11/11 10:35:25;;;;;;;13.63;7.00;;;14.20;96.90;;;14.41;60.49;96255.03;5003738;28;20804;-59
2022/11/11 10:38:04;;;;;;;9.83;7.30;;;14.20;96.50;;;14.40;60.37;96255.97;5007385;28;20465;-56
2022/11/11 10:40:37;;;;;;;8.40;7.37;;;14.30;96.70;;;14.41;60.65;96255.03;5007517;28;20876;-55
2022/11/11 10:43:04;;;;;;;10.20;7.60;;;14.20;96.50;;;14.44;60.22;96249.47;5003443;28;20480;-58
2022/11/11 10:45:39;;;;;;;9.30;8.30;;;14.30;96.50;;;14.44;60.36;96244.19;5001835;28;20565;-58
2022/11/11 10:48:09;;;;;;;13.00;7.83;;;14.30;96.50;;;14.46;59.75;96236.94;5003682;28;20903;-56
2022/11/11 10:50:38;;;;;;;9.60;7.00;;;14.20;96.30;;;14.48;59.88;96232.34;5002203;28;20478;-55
2022/11/11 10:53:13;;;;;;;7.57;6.70;;;14.30;96.30;;;14.47;58.96;96238.63;5002596;28;20453;-56
2022/11/11 10:55:43;;;;;;;8.17;7.17;;;14.30;95.50;;;14.46;59.35;96237.75;5007080;28;20469;-57
2022/11/11 10:58:14;;;;;;;8.00;6.77;;;14.30;95.70;;;14.48;58.85;96234.97;5006903;28;20978;-56
2022/11/11 11:00:41;;;;;;;10.27;6.17;;;14.30;95.40;;;14.51;58.68;96229.44;5007378;28;20581;-56
2022/11/11 11:03:13;;;;;;;11.20;6.77;;;14.30;95.00;;;14.51;58.89;96229.44;5007072;28;20453;-56
2022/11/11 11:05:44;;;;;;;13.87;7.23;;;14.30;95.00;;;14.54;58.25;96229.16;5003752;28;20477;-55
2022/11/11 11:08:15;;;;;;;7.13;6.40;;;14.40;94.80;;;14.56;58.74;96226.41;5007208;28;20473;-56
2022/11/11 11:10:45;;;;;;;9.13;6.63;;;14.30;94.90;;;14.57;58.69;96223.63;5006828;28;20826;-56
2022/11/11 11:13:16;;;;;;;9.77;6.00;;;14.40;94.80;;;14.62;58.09;96220.59;5006971;28;20835;-56
2022/11/11 11:15:48;;;;;;;8.70;6.10;;;14.40;94.50;;;14.64;57.49;96219.50;5007390;28;20496;-57
2022/11/11 11:18:16;;;;;;;7.80;6.40;;;14.40;94.00;;;14.68;55.82;96215.59;5004207;28;20446;-56
2022/11/11 11:20:56;;;;;;;8.90;6.17;;;14.50;92.70;;;14.71;56.30;96219.81;5007046;28;20470;-56
2022/11/11 11:23:38;;;;;;;10.83;6.13;;;14.50;92.90;;;14.76;55.75;96222.91;5003933;28;20500;-56
2022/11/11 11:26:05;;;;;;;5.60;5.07;;;14.50;92.70;;;14.80;56.51;96211.06;5007063;28;20715;-55
2022/11/11 11:28:33;;;;;;;9.87;6.47;;;14.60;92.70;;;14.85;55.70;96205.38;5002120;28;20492;-57
2022/11/11 11:31:02;;;;;;;6.20;5.60;;;14.60;92.30;;;14.94;54.05;96201.94;5006819;28;20515;-57
2022/11/11 11:33:46;;;;;;;9.93;5.57;;;14.70;91.30;;;15.05;55.64;96204.47;5006134;28;20874;-56